sensor_id;sensor_type;location;lat;lon;timestamp;pressure;altitude;pressure_sealevel;temperature;humidity
48848;BME280;36611;51.638;5.784;2022-09-02T00:00:59;101544.81;;;21.64;34.56
48848;BME280;36611;51.638;5.784;2022-09-02T00:03:33;101545.28;;;21.59;34.87
48848;BME280;36611;51.638;5.784;2022-09-02T00:06:01;101546.47;;;21.56;34.84
48848;BME280;36611;51.638;5.784;2022-09-02T00:08:29;101544.03;;;21.53;34.93
48848;BME280;36611;51.638;5.784;2022-09-02T00:10:59;101549.50;;;21.53;35.15
48848;BME280;36611;51.638;5.784;2022-09-02T00:13:31;101544.03;;;21.53;35.22
48848;BME280;36611;51.638;5.784;2022-09-02T00:15:59;101545.06;;;21.52;35.09
48848;BME280;36611;51.638;5.784;2022-09-02T00:18:25;101550.53;;;21.52;35.17
48848;BME280;36611;51.638;5.784;2022-09-02T00:20:54;101542.66;;;21.49;35.15
48848;BME280;36611;51.638;5.784;2022-09-02T00:23:24;101541.09;;;21.47;34.98
48848;BME280;36611;51.638;5.784;2022-09-02T00:25:53;101541.59;;;21.42;35.21
48848;BME280;36611;51.638;5.784;2022-09-02T00:28:19;101537.31;;;21.40;35.39
48848;BME280;36611;51.638;5.784;2022-09-02T00:30:47;101541.53;;;21.34;35.43
48848;BME280;36611;51.638;5.784;2022-09-02T00:33:17;101534.00;;;21.28;35.49
48848;BME280;36611;51.638;5.784;2022-09-02T00:35:44;101526.97;;;21.25;35.46
48848;BME280;36611;51.638;5.784;2022-09-02T00:38:11;101525.56;;;21.21;35.41
48848;BME280;36611;51.638;5.784;2022-09-02T00:40:43;101529.47;;;21.19;35.50
48848;BME280;36611;51.638;5.784;2022-09-02T00:43:10;101522.63;;;21.15;35.36
48848;BME280;36611;51.638;5.784;2022-09-02T00:45:44;101522.25;;;21.10;35.94
48848;BME280;36611;51.638;5.784;2022-09-02T00:48:11;101525.31;;;21.07;35.59
48848;BME280;36611;51.638;5.784;2022-09-02T00:50:37;101516.72;;;21.02;35.75
48848;BME280;36611;51.638;5.784;2022-09-02T00:53:07;101517.06;;;20.99;36.08
48848;BME280;36611;51.638;5.784;2022-09-02T00:55:48;101520.09;;;20.96;35.83
48848;BME280;36611;51.638;5.784;2022-09-02T00:58:23;101516.69;;;20.93;36.20
48848;BME280;36611;51.638;5.784;2022-09-02T01:00:53;101510.69;;;20.90;36.22
48848;BME280;36611;51.638;5.784;2022-09-02T01:03:27;101512.88;;;20.86;36.27
48848;BME280;36611;51.638;5.784;2022-09-02T01:05:56;101516.78;;;20.84;35.90
48848;BME280;36611;51.638;5.784;2022-09-02T01:08:26;101511.47;;;20.82;36.21
48848;BME280;36611;51.638;5.784;2022-09-02T01:10:55;101511.63;;;20.81;36.20
48848;BME280;36611;51.638;5.784;2022-09-02T01:13:27;101511.94;;;20.78;36.53
48848;BME280;36611;51.638;5.784;2022-09-02T01:16:01;101510.22;;;20.77;36.36
48848;BME280;36611;51.638;5.784;2022-09-02T01:18:29;101505.22;;;20.72;36.26
48848;BME280;36611;51.638;5.784;2022-09-02T01:20:58;101512.72;;;20.70;36.56
48848;BME280;36611;51.638;5.784;2022-09-02T01:23:28;101515.59;;;20.69;36.49
48848;BME280;36611;51.638;5.784;2022-09-02T01:26:00;101512.19;;;20.67;36.36
48848;BME280;36611;51.638;5.784;2022-09-02T01:28:27;101514.22;;;20.65;36.46
48848;BME280;36611;51.638;5.784;2022-09-02T01:30:54;101513.50;;;20.62;36.33
48848;BME280;36611;51.638;5.784;2022-09-02T01:33:26;101511.97;;;20.60;36.73
48848;BME280;36611;51.638;5.784;2022-09-02T01:35:53;101497.63;;;20.58;36.52
48848;BME280;36611;51.638;5.784;2022-09-02T01:38:21;101502.38;;;20.56;37.05
48848;BME280;36611;51.638;5.784;2022-09-02T01:40:48;101501.69;;;20.54;36.85
48848;BME280;36611;51.638;5.784;2022-09-02T01:43:22;101502.69;;;20.53;36.77
48848;BME280;36611;51.638;5.784;2022-09-02T01:45:52;101502.00;;;20.51;36.67
48848;BME280;36611;51.638;5.784;2022-09-02T01:48:21;101497.69;;;20.48;36.87
48848;BME280;36611;51.638;5.784;2022-09-02T01:50:56;101498.19;;;20.44;36.96
48848;BME280;36611;51.638;5.784;2022-09-02T01:53:27;101501.38;;;20.39;37.06
48848;BME280;36611;51.638;5.784;2022-09-02T01:55:55;101500.66;;;20.37;37.10
48848;BME280;36611;51.638;5.784;2022-09-02T01:58:22;101500.09;;;20.34;36.97
48848;BME280;36611;51.638;5.784;2022-09-02T02:00:50;101498.69;;;20.29;36.94
48848;BME280;36611;51.638;5.784;2022-09-02T02:03:17;101496.28;;;20.26;37.50
48848;BME280;36611;51.638;5.784;2022-09-02T02:05:43;101499.31;;;20.23;37.45
48848;BME280;36611;51.638;5.784;2022-09-02T02:08:13;101499.63;;;20.20;37.23
48848;BME280;36611;51.638;5.784;2022-09-02T02:10:41;101501.13;;;20.15;37.40
48848;BME280;36611;51.638;5.784;2022-09-02T02:13:10;101494.97;;;20.13;37.11
48848;BME280;36611;51.638;5.784;2022-09-02T02:15:44;101499.88;;;20.09;37.51
48848;BME280;36611;51.638;5.784;2022-09-02T02:18:11;101498.31;;;20.07;37.60
48848;BME280;36611;51.638;5.784;2022-09-02T02:20:38;101498.44;;;20.05;37.82
48848;BME280;36611;51.638;5.784;2022-09-02T02:23:05;101504.34;;;20.00;37.83
48848;BME280;36611;51.638;5.784;2022-09-02T02:25:34;101502.09;;;19.96;37.58
48848;BME280;36611;51.638;5.784;2022-09-02T02:28:00;101494.38;;;19.91;37.73
48848;BME280;36611;51.638;5.784;2022-09-02T02:30:28;101489.53;;;19.85;37.74
48848;BME280;36611;51.638;5.784;2022-09-02T02:32:56;101495.13;;;19.84;37.81
48848;BME280;36611;51.638;5.784;2022-09-02T02:35:24;101491.69;;;19.82;38.46
48848;BME280;36611;51.638;5.784;2022-09-02T02:37:51;101486.41;;;19.80;38.09
48848;BME280;36611;51.638;5.784;2022-09-02T02:40:20;101492.16;;;19.77;38.07
48848;BME280;36611;51.638;5.784;2022-09-02T02:42:48;101492.47;;;19.74;38.05
48848;BME280;36611;51.638;5.784;2022-09-02T02:45:19;101482.88;;;19.70;38.20
48848;BME280;36611;51.638;5.784;2022-09-02T02:47:45;101487.94;;;19.65;37.91
48848;BME280;36611;51.638;5.784;2022-09-02T02:50:16;101490.09;;;19.61;38.37
48848;BME280;36611;51.638;5.784;2022-09-02T02:52:45;101487.84;;;19.57;38.35
48848;BME280;36611;51.638;5.784;2022-09-02T02:55:14;101489.84;;;19.55;38.66
48848;BME280;36611;51.638;5.784;2022-09-02T02:57:42;101478.38;;;19.51;38.36
48848;BME280;36611;51.638;5.784;2022-09-02T03:00:16;101486.84;;;19.48;38.72
48848;BME280;36611;51.638;5.784;2022-09-02T03:02:45;101474.38;;;19.46;38.47
48848;BME280;36611;51.638;5.784;2022-09-02T03:05:15;101481.69;;;19.45;38.96
48848;BME280;36611;51.638;5.784;2022-09-02T03:07:41;101478.97;;;19.45;38.77
48848;BME280;36611;51.638;5.784;2022-09-02T03:10:10;101477.25;;;19.44;38.64
48848;BME280;36611;51.638;5.784;2022-09-02T03:12:40;101476.56;;;19.42;38.97
48848;BME280;36611;51.638;5.784;2022-09-02T03:15:10;101475.84;;;19.40;38.79
48848;BME280;36611;51.638;5.784;2022-09-02T03:17:38;101478.88;;;19.37;39.15
48848;BME280;36611;51.638;5.784;2022-09-02T03:20:05;101480.03;;;19.34;38.78
48848;BME280;36611;51.638;5.784;2022-09-02T03:22:38;101474.00;;;19.31;39.34
48848;BME280;36611;51.638;5.784;2022-09-02T03:25:08;101477.88;;;19.28;39.12
48848;BME280;36611;51.638;5.784;2022-09-02T03:27:39;101475.47;;;19.25;39.13
48848;BME280;36611;51.638;5.784;2022-09-02T03:30:12;101483.06;;;19.22;39.28
48848;BME280;36611;51.638;5.784;2022-09-02T03:32:39;101469.75;;;19.19;39.05
48848;BME280;36611;51.638;5.784;2022-09-02T03:35:10;101470.06;;;19.16;39.57
48848;BME280;36611;51.638;5.784;2022-09-02T03:37:38;101472.06;;;19.14;39.24
48848;BME280;36611;51.638;5.784;2022-09-02T03:40:09;101470.66;;;19.10;39.24
48848;BME280;36611;51.638;5.784;2022-09-02T03:42:37;101477.09;;;19.09;39.42
48848;BME280;36611;51.638;5.784;2022-09-02T03:45:11;101468.22;;;19.07;39.55
48848;BME280;36611;51.638;5.784;2022-09-02T03:47:40;101470.78;;;19.08;39.73
48848;BME280;36611;51.638;5.784;2022-09-02T03:50:12;101469.78;;;19.09;39.76
48848;BME280;36611;51.638;5.784;2022-09-02T03:52:39;101463.34;;;19.10;39.77
48848;BME280;36611;51.638;5.784;2022-09-02T03:55:10;101467.06;;;19.09;39.96
48848;BME280;36611;51.638;5.784;2022-09-02T03:57:37;101465.75;;;19.13;40.07
48848;BME280;36611;51.638;5.784;2022-09-02T04:00:05;101457.59;;;19.13;39.95
48848;BME280;36611;51.638;5.784;2022-09-02T04:02:39;101453.88;;;19.14;40.00
48848;BME280;36611;51.638;5.784;2022-09-02T04:05:13;101454.72;;;19.15;39.84
48848;BME280;36611;51.638;5.784;2022-09-02T04:07:42;101454.88;;;19.13;40.01
48848;BME280;36611;51.638;5.784;2022-09-02T04:10:13;101456.59;;;19.14;40.19
48848;BME280;36611;51.638;5.784;2022-09-02T04:12:40;101455.03;;;19.12;39.89
48848;BME280;36611;51.638;5.784;2022-09-02T04:15:10;101448.56;;;19.13;40.07
48848;BME280;36611;51.638;5.784;2022-09-02T04:17:38;101446.84;;;19.12;40.11
48848;BME280;36611;51.638;5.784;2022-09-02T04:20:09;101448.72;;;19.11;40.30
48848;BME280;36611;51.638;5.784;2022-09-02T04:22:36;101445.13;;;19.11;40.35
48848;BME280;36611;51.638;5.784;2022-09-02T04:25:04;101443.28;;;19.11;39.88
48848;BME280;36611;51.638;5.784;2022-09-02T04:27:33;101443.97;;;19.13;39.90
48848;BME280;36611;51.638;5.784;2022-09-02T04:30:00;101446.25;;;19.18;40.16
48848;BME280;36611;51.638;5.784;2022-09-02T04:32:30;101446.09;;;19.19;40.29
48848;BME280;36611;51.638;5.784;2022-09-02T04:35:05;101442.22;;;19.22;40.16
48848;BME280;36611;51.638;5.784;2022-09-02T04:37:32;101444.50;;;19.26;40.19
48848;BME280;36611;51.638;5.784;2022-09-02T04:39:59;101441.47;;;19.29;40.28
48848;BME280;36611;51.638;5.784;2022-09-02T04:42:26;101443.19;;;19.30;40.04
48848;BME280;36611;51.638;5.784;2022-09-02T04:44:54;101443.03;;;19.32;39.92
48848;BME280;36611;51.638;5.784;2022-09-02T04:47:23;101444.78;;;19.33;40.29
48848;BME280;36611;51.638;5.784;2022-09-02T04:49:51;101438.31;;;19.34;40.15
48848;BME280;36611;51.638;5.784;2022-09-02T04:52:18;101441.91;;;19.34;40.28
48848;BME280;36611;51.638;5.784;2022-09-02T04:54:47;101447.19;;;19.36;40.19
48848;BME280;36611;51.638;5.784;2022-09-02T04:57:13;101441.59;;;19.38;39.96
48848;BME280;36611;51.638;5.784;2022-09-02T04:59:41;101448.63;;;19.40;40.13
48848;BME280;36611;51.638;5.784;2022-09-02T05:02:09;101442.16;;;19.41;40.39
48848;BME280;36611;51.638;5.784;2022-09-02T05:04:37;101441.00;;;19.44;40.23
48848;BME280;36611;51.638;5.784;2022-09-02T05:07:09;101442.84;;;19.43;40.39
48848;BME280;36611;51.638;5.784;2022-09-02T05:09:42;101442.72;;;19.45;40.25
48848;BME280;36611;51.638;5.784;2022-09-02T05:12:09;101439.97;;;19.45;40.02
48848;BME280;36611;51.638;5.784;2022-09-02T05:14:46;101443.41;;;19.47;40.18
48848;BME280;36611;51.638;5.784;2022-09-02T05:17:15;101448.72;;;19.48;40.12
48848;BME280;36611;51.638;5.784;2022-09-02T05:19:43;101447.53;;;19.51;40.19
48848;BME280;36611;51.638;5.784;2022-09-02T05:22:12;101446.25;;;19.55;40.40
48848;BME280;36611;51.638;5.784;2022-09-02T05:24:43;101449.53;;;19.58;40.42
48848;BME280;36611;51.638;5.784;2022-09-02T05:27:12;101451.81;;;19.63;40.25
48848;BME280;36611;51.638;5.784;2022-09-02T05:29:41;101453.22;;;19.67;40.31
48848;BME280;36611;51.638;5.784;2022-09-02T05:32:12;101454.63;;;19.71;40.12
48848;BME280;36611;51.638;5.784;2022-09-02T05:34:40;101455.88;;;19.77;40.27
48848;BME280;36611;51.638;5.784;2022-09-02T05:37:07;101446.53;;;19.79;40.38
48848;BME280;36611;51.638;5.784;2022-09-02T05:39:35;101440.94;;;19.81;39.89
48848;BME280;36611;51.638;5.784;2022-09-02T05:42:04;101442.34;;;19.85;40.13
48848;BME280;36611;51.638;5.784;2022-09-02T05:44:32;101450.34;;;19.86;39.74
48848;BME280;36611;51.638;5.784;2022-09-02T05:47:02;101447.47;;;19.88;39.93
48848;BME280;36611;51.638;5.784;2022-09-02T05:49:29;101444.44;;;19.91;39.91
48848;BME280;36611;51.638;5.784;2022-09-02T05:52:02;101454.19;;;19.93;39.81
48848;BME280;36611;51.638;5.784;2022-09-02T05:54:39;101453.16;;;19.94;39.73
48848;BME280;36611;51.638;5.784;2022-09-02T05:57:12;101450.28;;;19.96;39.87
48848;BME280;36611;51.638;5.784;2022-09-02T05:59:57;101447.94;;;20.01;39.80
48848;BME280;36611;51.638;5.784;2022-09-02T06:02:38;101451.22;;;20.05;40.17
48848;BME280;36611;51.638;5.784;2022-09-02T06:05:08;101455.66;;;20.06;39.96
48848;BME280;36611;51.638;5.784;2022-09-02T06:07:41;101441.91;;;20.07;40.04
48848;BME280;36611;51.638;5.784;2022-09-02T06:10:07;101445.31;;;20.09;39.80
48848;BME280;36611;51.638;5.784;2022-09-02T06:12:34;101445.00;;;20.12;39.77
48848;BME280;36611;51.638;5.784;2022-09-02T06:15:09;101442.69;;;20.17;39.91
48848;BME280;36611;51.638;5.784;2022-09-02T06:17:38;101434.19;;;20.20;40.09
48848;BME280;36611;51.638;5.784;2022-09-02T06:20:07;101449.06;;;20.26;39.68
48848;BME280;36611;51.638;5.784;2022-09-02T06:22:35;101441.56;;;20.28;39.58
48848;BME280;36611;51.638;5.784;2022-09-02T06:25:03;101441.09;;;20.33;40.09
48848;BME280;36611;51.638;5.784;2022-09-02T06:27:30;101443.19;;;20.39;39.94
48848;BME280;36611;51.638;5.784;2022-09-02T06:29:59;101451.78;;;20.44;40.14
48848;BME280;36611;51.638;5.784;2022-09-02T06:32:27;101447.03;;;20.46;40.06
48848;BME280;36611;51.638;5.784;2022-09-02T06:35:00;101442.97;;;20.50;40.16
48848;BME280;36611;51.638;5.784;2022-09-02T06:37:31;101439.06;;;20.52;39.97
48848;BME280;36611;51.638;5.784;2022-09-02T06:39:58;101438.91;;;20.54;39.79
48848;BME280;36611;51.638;5.784;2022-09-02T06:42:27;101437.91;;;20.55;39.74
48848;BME280;36611;51.638;5.784;2022-09-02T06:45:19;101435.69;;;20.58;39.74
48848;BME280;36611;51.638;5.784;2022-09-02T06:47:46;101441.69;;;20.62;39.96
48848;BME280;36611;51.638;5.784;2022-09-02T06:50:13;101432.16;;;20.66;40.03
48848;BME280;36611;51.638;5.784;2022-09-02T06:52:41;101434.25;;;20.72;39.68
48848;BME280;36611;51.638;5.784;2022-09-02T06:55:10;101429.34;;;20.76;40.17
48848;BME280;36611;51.638;5.784;2022-09-02T06:57:38;101432.47;;;20.81;39.66
48848;BME280;36611;51.638;5.784;2022-09-02T07:00:09;101435.56;;;20.86;39.84
48848;BME280;36611;51.638;5.784;2022-09-02T07:02:36;101432.34;;;20.90;39.83
48848;BME280;36611;51.638;5.784;2022-09-02T07:05:07;101433.75;;;20.94;39.89
48848;BME280;36611;51.638;5.784;2022-09-02T07:07:42;101423.34;;;20.98;39.59
48848;BME280;36611;51.638;5.784;2022-09-02T07:10:13;101424.56;;;21.04;39.71
48848;BME280;36611;51.638;5.784;2022-09-02T07:12:44;101421.19;;;21.10;39.71
48848;BME280;36611;51.638;5.784;2022-09-02T07:15:15;101412.19;;;21.17;39.80
48848;BME280;36611;51.638;5.784;2022-09-02T07:17:42;101418.56;;;21.26;39.84
48848;BME280;36611;51.638;5.784;2022-09-02T07:20:22;101413.97;;;21.35;39.33
48848;BME280;36611;51.638;5.784;2022-09-02T07:22:53;101423.22;;;21.42;39.55
48848;BME280;36611;51.638;5.784;2022-09-02T07:25:25;101421.53;;;21.49;39.45
48848;BME280;36611;51.638;5.784;2022-09-02T07:27:52;101419.03;;;21.55;39.62
48848;BME280;36611;51.638;5.784;2022-09-02T07:30:20;101417.19;;;21.64;39.59
48848;BME280;36611;51.638;5.784;2022-09-02T07:32:52;101421.81;;;21.72;39.56
48848;BME280;36611;51.638;5.784;2022-09-02T07:35:29;101425.41;;;21.80;39.27
48848;BME280;36611;51.638;5.784;2022-09-02T07:37:57;101418.25;;;21.87;39.15
48848;BME280;36611;51.638;5.784;2022-09-02T07:40:24;101414.66;;;21.95;39.46
48848;BME280;36611;51.638;5.784;2022-09-02T07:42:53;101410.09;;;22.04;39.11
48848;BME280;36611;51.638;5.784;2022-09-02T07:45:22;101409.06;;;22.13;39.36
48848;BME280;36611;51.638;5.784;2022-09-02T07:47:49;101406.34;;;22.21;39.20
48848;BME280;36611;51.638;5.784;2022-09-02T07:50:18;101408.06;;;22.30;39.25
48848;BME280;36611;51.638;5.784;2022-09-02T07:52:56;101405.16;;;22.40;38.73
48848;BME280;36611;51.638;5.784;2022-09-02T07:55:31;101406.69;;;22.50;38.81
48848;BME280;36611;51.638;5.784;2022-09-02T07:58:02;101404.44;;;22.62;38.93
48848;BME280;36611;51.638;5.784;2022-09-02T08:00:30;101399.63;;;22.72;38.52
48848;BME280;36611;51.638;5.784;2022-09-02T08:03:04;101403.72;;;22.85;38.96
48848;BME280;36611;51.638;5.784;2022-09-02T08:05:56;101404.03;;;22.98;38.98
48848;BME280;36611;51.638;5.784;2022-09-02T08:08:23;101400.94;;;23.09;38.70
48848;BME280;36611;51.638;5.784;2022-09-02T08:10:53;101400.56;;;23.20;38.80
48848;BME280;36611;51.638;5.784;2022-09-02T08:13:22;101402.53;;;23.34;38.53
48848;BME280;36611;51.638;5.784;2022-09-02T08:15:52;101398.84;;;23.50;38.42
48848;BME280;36611;51.638;5.784;2022-09-02T08:18:19;101406.53;;;23.63;38.40
48848;BME280;36611;51.638;5.784;2022-09-02T08:20:48;101409.72;;;23.74;38.04
48848;BME280;36611;51.638;5.784;2022-09-02T08:23:17;101402.81;;;23.87;37.69
48848;BME280;36611;51.638;5.784;2022-09-02T08:26:02;101391.03;;;24.01;37.94
48848;BME280;36611;51.638;5.784;2022-09-02T08:28:30;101399.69;;;24.13;37.63
48848;BME280;36611;51.638;5.784;2022-09-02T08:30:57;101386.56;;;24.23;37.83
48848;BME280;36611;51.638;5.784;2022-09-02T08:33:26;101395.25;;;24.34;37.29
48848;BME280;36611;51.638;5.784;2022-09-02T08:35:54;101382.59;;;24.48;37.59
48848;BME280;36611;51.638;5.784;2022-09-02T08:38:20;101382.44;;;24.64;37.30
48848;BME280;36611;51.638;5.784;2022-09-02T08:40:48;101388.41;;;24.83;37.08
48848;BME280;36611;51.638;5.784;2022-09-02T08:45:55;101380.19;;;25.12;36.89
48848;BME280;36611;51.638;5.784;2022-09-02T08:51:23;101372.69;;;25.36;36.63
48848;BME280;36611;51.638;5.784;2022-09-02T08:54:04;101365.00;;;25.46;36.38
48848;BME280;36611;51.638;5.784;2022-09-02T08:56:31;101364.47;;;25.57;35.98
48848;BME280;36611;51.638;5.784;2022-09-02T08:58:58;101362.97;;;25.69;35.97
48848;BME280;36611;51.638;5.784;2022-09-02T09:14:53;101371.63;;;26.58;34.96
48848;BME280;36611;51.638;5.784;2022-09-02T09:17:45;101372.66;;;26.78;34.89
48848;BME280;36611;51.638;5.784;2022-09-02T09:20:21;101381.44;;;26.95;34.56
48848;BME280;36611;51.638;5.784;2022-09-02T09:22:51;101382.19;;;27.10;34.67
48848;BME280;36611;51.638;5.784;2022-09-02T09:25:25;101373.97;;;27.23;34.24
48848;BME280;36611;51.638;5.784;2022-09-02T09:27:56;101374.22;;;27.35;33.82
48848;BME280;36611;51.638;5.784;2022-09-02T09:30:23;101366.22;;;27.47;34.07
48848;BME280;36611;51.638;5.784;2022-09-02T09:32:52;101364.41;;;27.61;33.58
48848;BME280;36611;51.638;5.784;2022-09-02T09:35:23;101362.94;;;27.71;33.52
48848;BME280;36611;51.638;5.784;2022-09-02T09:37:55;101364.88;;;27.84;33.69
48848;BME280;36611;51.638;5.784;2022-09-02T09:40:31;101368.91;;;27.95;33.22
48848;BME280;36611;51.638;5.784;2022-09-02T09:45:56;101351.94;;;28.17;32.95
48848;BME280;36611;51.638;5.784;2022-09-02T09:48:25;101363.06;;;28.31;32.97
48848;BME280;36611;51.638;5.784;2022-09-02T09:58:18;101349.41;;;28.69;32.26
48848;BME280;36611;51.638;5.784;2022-09-02T10:00:45;101346.19;;;28.78;32.14
48848;BME280;36611;51.638;5.784;2022-09-02T10:03:25;101341.72;;;28.91;32.03
48848;BME280;36611;51.638;5.784;2022-09-02T10:06:16;101341.06;;;29.02;31.81
48848;BME280;36611;51.638;5.784;2022-09-02T10:08:58;101345.50;;;29.09;31.57
48848;BME280;36611;51.638;5.784;2022-09-02T10:11:34;101337.38;;;29.21;31.66
48848;BME280;36611;51.638;5.784;2022-09-02T10:14:10;101335.59;;;29.33;31.51
48848;BME280;36611;51.638;5.784;2022-09-02T10:17:05;101332.81;;;29.47;31.50
48848;BME280;36611;51.638;5.784;2022-09-02T10:19:44;101336.78;;;29.57;31.15
48848;BME280;36611;51.638;5.784;2022-09-02T10:22:30;101331.59;;;29.67;31.21
48848;BME280;36611;51.638;5.784;2022-09-02T10:29:24;101326.56;;;29.89;31.00
48848;BME280;36611;51.638;5.784;2022-09-02T10:32:28;101321.13;;;30.08;30.53
48848;BME280;36611;51.638;5.784;2022-09-02T10:34:40;101315.47;;;30.21;30.24
48848;BME280;36611;51.638;5.784;2022-09-02T10:37:22;101308.13;;;30.33;30.15
48848;BME280;36611;51.638;5.784;2022-09-02T10:40:07;101314.78;;;30.50;30.35
48848;BME280;36611;51.638;5.784;2022-09-02T10:45:15;101307.13;;;30.71;29.24
48848;BME280;36611;51.638;5.784;2022-09-02T10:48:05;101293.66;;;30.74;29.23
48848;BME280;36611;51.638;5.784;2022-09-02T10:50:41;101302.13;;;30.79;28.96
48848;BME280;36611;51.638;5.784;2022-09-02T10:56:34;101299.16;;;31.11;28.85
48848;BME280;36611;51.638;5.784;2022-09-02T10:59:11;101303.28;;;31.26;28.58
48848;BME280;36611;51.638;5.784;2022-09-02T11:04:39;101289.13;;;31.46;27.75
48848;BME280;36611;51.638;5.784;2022-09-02T11:07:08;101291.56;;;31.54;27.43
48848;BME280;36611;51.638;5.784;2022-09-02T11:09:42;101277.81;;;31.59;27.36
48848;BME280;36611;51.638;5.784;2022-09-02T11:12:16;101288.34;;;31.69;27.28
48848;BME280;36611;51.638;5.784;2022-09-02T11:17:32;101279.00;;;31.82;26.47
48848;BME280;36611;51.638;5.784;2022-09-02T11:26:37;101259.91;;;31.85;25.89
48848;BME280;36611;51.638;5.784;2022-09-02T11:29:12;101261.03;;;31.96;26.00
48848;BME280;36611;51.638;5.784;2022-09-02T11:31:45;101270.59;;;32.00;25.83
48848;BME280;36611;51.638;5.784;2022-09-02T11:37:07;101265.59;;;31.90;25.31
48848;BME280;36611;51.638;5.784;2022-09-02T11:39:41;101257.50;;;31.89;25.27
48848;BME280;36611;51.638;5.784;2022-09-02T11:48:14;101244.88;;;32.40;25.07
48848;BME280;36611;51.638;5.784;2022-09-02T11:51:22;101241.59;;;32.43;24.48
48848;BME280;36611;51.638;5.784;2022-09-02T11:53:57;101242.34;;;32.38;24.67
48848;BME280;36611;51.638;5.784;2022-09-02T11:56:29;101241.84;;;32.30;24.45
48848;BME280;36611;51.638;5.784;2022-09-02T11:59:00;101236.53;;;32.16;24.92
48848;BME280;36611;51.638;5.784;2022-09-02T12:09:51;101234.56;;;31.93;23.93
48848;BME280;36611;51.638;5.784;2022-09-02T12:15:08;101229.94;;;31.76;23.67
48848;BME280;36611;51.638;5.784;2022-09-02T12:23:02;101221.09;;;31.67;23.57
48848;BME280;36611;51.638;5.784;2022-09-02T12:33:52;101209.22;;;32.37;22.70
48848;BME280;36611;51.638;5.784;2022-09-02T12:50:07;101197.06;;;32.78;21.82
48848;BME280;36611;51.638;5.784;2022-09-02T12:52:51;101197.72;;;32.97;21.75
48848;BME280;36611;51.638;5.784;2022-09-02T12:55:24;101191.09;;;33.14;21.78
48848;BME280;36611;51.638;5.784;2022-09-02T12:57:54;101193.97;;;33.20;21.40
48848;BME280;36611;51.638;5.784;2022-09-02T13:08:52;101165.09;;;33.37;21.35
48848;BME280;36611;51.638;5.784;2022-09-02T13:14:49;101156.53;;;33.27;20.94
48848;BME280;36611;51.638;5.784;2022-09-02T13:17:33;101167.09;;;33.25;20.86
48848;BME280;36611;51.638;5.784;2022-09-02T13:32:21;101158.28;;;33.45;20.66
48848;BME280;36611;51.638;5.784;2022-09-02T13:34:52;101148.41;;;33.54;20.83
48848;BME280;36611;51.638;5.784;2022-09-02T13:37:37;101150.78;;;33.62;20.23
48848;BME280;36611;51.638;5.784;2022-09-02T13:42:47;101151.59;;;33.79;20.08
48848;BME280;36611;51.638;5.784;2022-09-02T13:45:24;101154.50;;;33.85;19.94
48848;BME280;36611;51.638;5.784;2022-09-02T13:47:56;101148.94;;;33.85;20.00
48848;BME280;36611;51.638;5.784;2022-09-02T13:50:26;101144.09;;;33.80;19.71
48848;BME280;36611;51.638;5.784;2022-09-02T13:52:57;101134.81;;;33.74;19.73
48848;BME280;36611;51.638;5.784;2022-09-02T13:55:55;101138.44;;;33.75;19.70
48848;BME280;36611;51.638;5.784;2022-09-02T13:58:32;101142.66;;;33.77;19.99
48848;BME280;36611;51.638;5.784;2022-09-02T14:01:31;101139.72;;;33.84;19.88
48848;BME280;36611;51.638;5.784;2022-09-02T14:04:13;101139.22;;;33.87;19.78
48848;BME280;36611;51.638;5.784;2022-09-02T14:06:44;101135.59;;;33.87;19.72
48848;BME280;36611;51.638;5.784;2022-09-02T14:09:23;101122.66;;;33.80;19.72
48848;BME280;36611;51.638;5.784;2022-09-02T14:11:51;101122.31;;;33.77;19.97
48848;BME280;36611;51.638;5.784;2022-09-02T14:14:24;101104.50;;;33.78;19.57
48848;BME280;36611;51.638;5.784;2022-09-02T14:16:51;101112.34;;;33.81;19.77
48848;BME280;36611;51.638;5.784;2022-09-02T14:21:55;101113.19;;;33.98;19.74
48848;BME280;36611;51.638;5.784;2022-09-02T14:24:29;101108.84;;;34.07;19.53
48848;BME280;36611;51.638;5.784;2022-09-02T14:27:02;101108.13;;;34.17;19.50
48848;BME280;36611;51.638;5.784;2022-09-02T14:29:29;101092.50;;;34.16;19.55
48848;BME280;36611;51.638;5.784;2022-09-02T14:32:09;101096.34;;;34.10;19.39
48848;BME280;36611;51.638;5.784;2022-09-02T14:34:43;101100.75;;;34.06;19.16
48848;BME280;36611;51.638;5.784;2022-09-02T14:37:19;101093.22;;;34.06;19.48
48848;BME280;36611;51.638;5.784;2022-09-02T14:40:10;101086.59;;;34.13;19.69
48848;BME280;36611;51.638;5.784;2022-09-02T14:42:43;101074.03;;;34.10;19.20
48848;BME280;36611;51.638;5.784;2022-09-02T14:45:11;101078.75;;;34.09;19.51
48848;BME280;36611;51.638;5.784;2022-09-02T14:47:39;101082.66;;;34.08;19.26
48848;BME280;36611;51.638;5.784;2022-09-02T14:50:11;101074.28;;;34.08;19.31
48848;BME280;36611;51.638;5.784;2022-09-02T14:52:45;101081.22;;;34.06;19.32
48848;BME280;36611;51.638;5.784;2022-09-02T14:55:45;101082.44;;;33.93;19.22
48848;BME280;36611;51.638;5.784;2022-09-02T14:58:13;101075.44;;;33.91;19.35
48848;BME280;36611;51.638;5.784;2022-09-02T15:00:52;101073.19;;;33.88;19.19
48848;BME280;36611;51.638;5.784;2022-09-02T15:03:22;101072.75;;;33.79;19.36
48848;BME280;36611;51.638;5.784;2022-09-02T15:05:50;101063.91;;;33.65;19.19
48848;BME280;36611;51.638;5.784;2022-09-02T15:08:17;101071.53;;;33.53;19.03
48848;BME280;36611;51.638;5.784;2022-09-02T15:10:44;101060.97;;;33.38;19.48
48848;BME280;36611;51.638;5.784;2022-09-02T15:13:30;101060.47;;;33.25;19.34
48848;BME280;36611;51.638;5.784;2022-09-02T15:15:58;101063.00;;;33.09;19.21
48848;BME280;36611;51.638;5.784;2022-09-02T15:18:25;101063.66;;;33.00;19.27
48848;BME280;36611;51.638;5.784;2022-09-02T15:20:51;101055.81;;;32.97;19.55